Time;durP1;ratioP1;P1;durP2;ratioP2;P2;SDS_P1;SDS_P2;PMS_P1;PMS_P2;Temp;Humidity;BMP_temperature;BMP_pressure;BME280_temperature;BME280_humidity;BME280_pressure;Samples;Min_cycle;Max_cycle;Signal;HPM_P1;HPM_P2
2023/04/28 00:01:41;;;;;;;92.90;55.90;;;16.80;69.00;;;;;;5002763;28;89912;-80
2023/04/28 00:04:07;;;;;;;95.07;55.92;;;16.80;69.00;;;;;;5026185;27;90695;-80
2023/04/28 00:06:33;;;;;;;92.07;55.65;;;16.80;69.10;;;;;;5005945;28;89864;-80
2023/04/28 00:08:59;;;;;;;93.15;56.00;;;16.70;69.00;;;;;;5005861;28;89875;-80
2023/04/28 00:11:24;;;;;;;91.28;55.67;;;16.80;69.10;;;;;;5010695;28;89822;-81
2023/04/28 00:13:50;;;;;;;93.13;56.03;;;16.70;69.00;;;;;;5005133;28;90014;-82
2023/04/28 00:16:16;;;;;;;93.15;56.00;;;16.70;69.00;;;;;;5005219;28;94058;-81
2023/04/28 00:18:42;;;;;;;90.10;55.25;;;16.70;69.00;;;;;;5010456;28;93596;-80
2023/04/28 00:21:07;;;;;;;93.25;55.80;;;16.70;69.00;;;;;;5008959;28;89657;-80
2023/04/28 00:23:33;;;;;;;91.35;55.47;;;16.70;69.10;;;;;;5002770;28;89982;-80
2023/04/28 00:25:58;;;;;;;92.85;55.75;;;16.70;69.00;;;;;;5005222;28;92972;-81
2023/04/28 00:28:24;;;;;;;91.35;55.53;;;16.70;69.00;;;;;;5006586;28;92191;-81
2023/04/28 00:30:50;;;;;;;91.43;55.45;;;16.70;69.00;;;;;;5009575;28;89546;-82
2023/04/28 00:33:15;;;;;;;92.55;55.65;;;16.70;69.00;;;;;;5003701;28;89204;-81
2023/04/28 00:35:41;;;;;;;92.40;55.63;;;16.70;69.10;;;;;;5006924;28;93110;-82
2023/04/28 00:38:07;;;;;;;93.18;55.50;;;16.70;69.00;;;;;;5004447;28;93101;-79
2023/04/28 00:40:37;;;;;;;90.88;55.58;;;16.70;69.10;;;;;;5006569;28;90423;-80
2023/04/28 00:43:04;;;;;;;90.87;55.40;;;16.70;69.10;;;;;;5006401;28;89560;-79
2023/04/28 00:45:30;;;;;;;89.70;55.20;;;16.70;69.10;;;;;;5024208;27;93062;-80
2023/04/28 00:47:57;;;;;;;91.50;55.50;;;16.70;69.10;;;;;;5008059;28;90015;-81
2023/04/28 00:50:24;;;;;;;90.45;55.28;;;16.70;69.10;;;;;;4999249;28;90679;-80
2023/04/28 00:52:51;;;;;;;89.13;55.13;;;16.70;69.10;;;;;;5003864;28;89291;-79
2023/04/28 00:55:17;;;;;;;91.38;55.45;;;16.70;69.10;;;;;;5024694;27;92775;-81
2023/04/28 00:57:43;;;;;;;92.20;55.25;;;16.60;69.10;;;;;;5007429;28;89611;-80
2023/04/28 01:00:10;;;;;;;90.15;55.17;;;16.60;69.10;;;;;;5005689;28;94181;-80
2023/04/28 01:02:36;;;;;;;89.88;54.92;;;16.60;69.10;;;;;;4999144;28;89655;-79
2023/04/28 01:05:02;;;;;;;91.13;55.67;;;16.60;69.20;;;;;;5000820;28;95018;-80
2023/04/28 01:07:28;;;;;;;89.95;54.80;;;16.60;69.20;;;;;;5003806;28;93596;-81
2023/04/28 01:09:54;;;;;;;89.70;54.97;;;16.60;69.20;;;;;;5005896;28;90035;-83
2023/04/28 01:12:20;;;;;;;90.07;54.92;;;16.60;69.30;;;;;;5006842;28;89561;-82
2023/04/28 01:14:47;;;;;;;92.30;55.15;;;16.60;69.20;;;;;;5008060;28;93680;-80
2023/04/28 01:17:13;;;;;;;89.32;54.85;;;16.60;69.20;;;;;;5003511;28;93997;-79
2023/04/28 01:19:39;;;;;;;90.60;54.88;;;16.60;69.30;;;;;;5025736;27;89311;-80
2023/04/28 01:22:05;;;;;;;91.90;55.42;;;16.60;69.20;;;;;;5007052;28;88438;-80
2023/04/28 01:24:31;;;;;;;89.75;54.60;;;16.60;69.20;;;;;;5014297;28;94578;-80
2023/04/28 01:26:56;;;;;;;89.70;55.13;;;16.60;69.30;;;;;;5006809;28;92067;-80
2023/04/28 01:29:22;;;;;;;90.35;55.00;;;16.60;69.20;;;;;;5002383;28;91241;-81
2023/04/28 01:31:48;;;;;;;91.53;54.95;;;16.60;69.30;;;;;;5008505;28;89276;-80
2023/04/28 01:34:14;;;;;;;89.43;54.75;;;16.60;69.30;;;;;;5012318;28;92686;-79
2023/04/28 01:36:40;;;;;;;90.70;54.83;;;16.60;69.40;;;;;;5007430;28;93009;-79
2023/04/28 01:39:05;;;;;;;90.72;54.70;;;16.50;69.20;;;;;;5009801;28;91155;-79
2023/04/28 01:41:33;;;;;;;90.60;54.58;;;16.60;69.30;;;;;;5010419;28;89729;-81
2023/04/28 01:43:59;;;;;;;89.63;54.05;;;16.50;69.30;;;;;;5008503;28;93623;-79
2023/04/28 01:46:25;;;;;;;89.00;54.53;;;16.50;69.30;;;;;;5007460;28;93343;-80
2023/04/28 01:48:50;;;;;;;88.72;53.95;;;16.50;69.30;;;;;;5003676;28;89816;-80
2023/04/28 01:51:16;;;;;;;89.30;54.38;;;16.50;69.30;;;;;;5008893;28;89913;-82
2023/04/28 01:53:41;;;;;;;89.90;54.55;;;16.50;69.30;;;;;;5003546;28;94577;-80
2023/04/28 01:56:07;;;;;;;88.95;54.45;;;16.50;69.30;;;;;;5002508;28;91476;-79
2023/04/28 01:58:33;;;;;;;90.40;54.53;;;16.50;69.30;;;;;;5009743;28;89848;-79
2023/04/28 02:00:58;;;;;;;90.40;54.10;;;16.50;69.30;;;;;;5009049;28;90333;-80
2023/04/28 02:03:24;;;;;;;89.63;54.45;;;16.50;69.30;;;;;;5009957;28;92978;-79
2023/04/28 02:05:50;;;;;;;89.38;54.13;;;16.50;69.30;;;;;;5013857;28;91930;-80
2023/04/28 02:08:15;;;;;;;89.95;54.67;;;16.50;69.30;;;;;;5011977;28;90071;-80
2023/04/28 02:10:41;;;;;;;89.90;54.25;;;16.50;69.30;;;;;;5008247;28;89215;-79
2023/04/28 02:13:07;;;;;;;88.88;54.08;;;16.50;69.30;;;;;;5009090;28;93227;-79
2023/04/28 02:15:34;;;;;;;89.72;54.75;;;16.50;69.30;;;;;;5010185;28;93536;-81
2023/04/28 02:17:59;;;;;;;91.25;54.17;;;16.50;69.40;;;;;;5009024;28;90298;-79
2023/04/28 02:20:26;;;;;;;89.53;54.58;;;16.50;69.40;;;;;;5006467;28;90399;-81
2023/04/28 02:22:52;;;;;;;89.95;54.25;;;16.50;69.40;;;;;;5001711;28;94132;-78
2023/04/28 02:25:17;;;;;;;88.95;54.50;;;16.40;69.40;;;;;;5008829;28;93759;-79
2023/04/28 02:27:43;;;;;;;89.53;54.55;;;16.50;69.40;;;;;;5008880;28;89388;-81
2023/04/28 02:30:09;;;;;;;88.93;54.15;;;16.50;69.40;;;;;;5011239;28;89322;-79
2023/04/28 02:32:34;;;;;;;88.18;54.05;;;16.40;69.40;;;;;;5006695;28;92552;-79
2023/04/28 02:35:00;;;;;;;89.13;54.35;;;16.50;69.50;;;;;;5007750;28;89655;-80
2023/04/28 02:37:26;;;;;;;88.20;54.13;;;16.40;69.50;;;;;;5001334;28;89895;-82
2023/04/28 02:39:52;;;;;;;89.65;54.25;;;16.50;69.60;;;;;;5007375;28;89826;-80
2023/04/28 02:42:18;;;;;;;89.40;54.20;;;16.40;69.50;;;;;;5003918;28;93984;-80
2023/04/28 02:44:43;;;;;;;89.20;54.20;;;16.40;69.40;;;;;;5009027;28;93857;-80
2023/04/28 02:47:09;;;;;;;88.30;53.97;;;16.40;69.50;;;;;;5010141;28;89542;-79
2023/04/28 02:49:35;;;;;;;89.35;54.05;;;16.40;69.40;;;;;;5011170;28;90900;-79
2023/04/28 02:52:00;;;;;;;88.25;54.03;;;16.40;69.50;;;;;;5008406;28;90292;-78
2023/04/28 02:54:29;;;;;;;88.15;54.05;;;16.40;69.50;;;;;;5011332;28;90353;-79
2023/04/28 02:56:56;;;;;;;88.45;53.20;;;16.40;69.50;;;;;;5010138;28;89587;-80
2023/04/28 02:59:23;;;;;;;87.72;53.65;;;16.40;69.60;;;;;;5009626;28;89362;-80
2023/04/28 03:01:48;;;;;;;90.30;54.53;;;16.40;69.60;;;;;;5020247;27;92797;-79
2023/04/28 03:04:15;;;;;;;87.82;53.80;;;16.40;69.60;;;;;;5004922;28;92647;-80
2023/04/28 03:06:41;;;;;;;87.40;53.88;;;16.40;69.60;;;;;;5007370;28;90503;-79
2023/04/28 03:09:08;;;;;;;88.25;54.03;;;16.40;69.60;;;;;;5010206;28;89694;-79
2023/04/28 03:11:33;;;;;;;88.95;53.97;;;16.40;69.60;;;;;;5008053;28;92890;-79
2023/04/28 03:13:59;;;;;;;88.30;54.00;;;16.40;69.60;;;;;;5006748;28;93491;-80
2023/04/28 03:16:25;;;;;;;87.68;53.83;;;16.40;69.60;;;;;;5014864;28;89394;-79
2023/04/28 03:18:50;;;;;;;88.78;54.00;;;16.40;69.60;;;;;;5015841;27;90695;-81
2023/04/28 03:21:16;;;;;;;88.32;54.15;;;16.40;69.60;;;;;;5005928;28;92661;-80
2023/04/28 03:23:42;;;;;;;88.88;53.95;;;16.40;69.60;;;;;;5005996;28;89126;-79
2023/04/28 03:26:07;;;;;;;87.78;53.35;;;16.40;69.70;;;;;;5010427;28;89632;-79
2023/04/28 03:28:33;;;;;;;87.93;53.38;;;16.40;69.70;;;;;;5010138;28;89747;-83
2023/04/28 03:30:59;;;;;;;88.63;53.58;;;16.40;69.70;;;;;;5005805;28;90864;-79
2023/04/28 03:33:25;;;;;;;90.18;53.70;;;16.40;69.70;;;;;;5008118;28;90870;-79
2023/04/28 03:35:50;;;;;;;87.43;53.35;;;16.40;69.70;;;;;;5008305;28;90396;-79
2023/04/28 03:38:16;;;;;;;88.32;53.70;;;16.40;69.70;;;;;;5005726;28;89446;-79
2023/04/28 03:40:41;;;;;;;88.43;53.63;;;16.40;69.80;;;;;;5010914;28;90247;-79
2023/04/28 03:43:07;;;;;;;87.28;53.30;;;16.30;69.70;;;;;;5004685;28;92781;-80
2023/04/28 03:45:33;;;;;;;87.05;53.08;;;16.40;69.70;;;;;;5013243;28;89406;-79
2023/04/28 03:47:58;;;;;;;88.03;53.67;;;16.40;69.80;;;;;;5007847;28;88773;-80
2023/04/28 03:50:24;;;;;;;88.28;53.53;;;16.40;69.80;;;;;;5005954;28;89356;-78
2023/04/28 03:52:50;;;;;;;87.82;53.70;;;16.40;69.90;;;;;;5004080;28;90071;-82
2023/04/28 03:55:15;;;;;;;87.75;53.45;;;16.40;69.80;;;;;;5009225;28;90376;-79
2023/04/28 03:57:41;;;;;;;88.22;53.92;;;16.40;69.80;;;;;;5013719;28;89858;-81
2023/04/28 04:00:07;;;;;;;87.15;53.13;;;16.30;69.80;;;;;;5006533;28;93511;-80
2023/04/28 04:02:33;;;;;;;87.18;53.28;;;16.30;69.90;;;;;;5003481;28;92648;-81
2023/04/28 04:04:59;;;;;;;87.30;53.00;;;16.30;69.80;;;;;;5004205;28;89372;-82
2023/04/28 04:07:25;;;;;;;87.65;53.30;;;16.30;69.80;;;;;;5004620;28;89535;-79
2023/04/28 04:09:50;;;;;;;88.53;53.75;;;16.30;69.80;;;;;;5008765;28;90534;-82
2023/04/28 04:12:16;;;;;;;87.82;53.47;;;16.30;69.80;;;;;;5012506;28;90367;-79
2023/04/28 04:14:42;;;;;;;87.72;53.35;;;16.30;69.80;;;;;;5011750;28;89559;-79
2023/04/28 04:17:08;;;;;;;87.78;53.33;;;16.30;69.80;;;;;;5007329;28;89844;-79
2023/04/28 04:19:33;;;;;;;87.57;53.00;;;16.30;69.80;;;;;;5005906;28;94748;-80
2023/04/28 04:21:59;;;;;;;86.72;53.03;;;16.30;70.60;;;;;;5007161;28;90141;-78
2023/04/28 04:24:25;;;;;;;88.40;53.10;;;16.30;69.80;;;;;;5003965;28;90611;-79
2023/04/28 04:26:50;;;;;;;87.07;53.33;;;16.30;69.70;;;;;;5007537;28;89571;-79
2023/04/28 04:29:16;;;;;;;87.13;53.13;;;16.30;69.80;;;;;;5006567;28;92906;-79
2023/04/28 04:31:44;;;;;;;87.72;53.45;;;16.30;69.80;;;;;;5006753;28;89851;-83
2023/04/28 04:34:10;;;;;;;88.07;53.10;;;16.30;69.90;;;;;;5001655;28;90217;-79
2023/04/28 04:36:36;;;;;;;86.30;52.80;;;16.30;69.80;;;;;;5006888;28;88535;-79
2023/04/28 04:39:01;;;;;;;86.85;53.05;;;16.30;69.80;;;;;;5006884;28;92839;-78
2023/04/28 04:41:27;;;;;;;87.20;53.03;;;16.30;69.90;;;;;;5004585;28;92694;-79
2023/04/28 04:43:53;;;;;;;86.53;52.85;;;16.30;69.80;;;;;;5003865;28;90911;-79
2023/04/28 04:46:19;;;;;;;86.93;52.85;;;16.30;69.80;;;;;;5000326;28;89565;-79
2023/04/28 04:48:44;;;;;;;87.18;53.08;;;16.30;69.80;;;;;;5003326;28;92854;-80
2023/04/28 04:51:10;;;;;;;87.60;53.15;;;16.30;70.10;;;;;;5002214;28;92740;-79
2023/04/28 04:53:36;;;;;;;87.15;53.03;;;16.30;70.00;;;;;;5001814;28;89960;-79
2023/04/28 04:56:02;;;;;;;87.22;53.13;;;16.30;70.00;;;;;;4997812;28;90511;-79
2023/04/28 04:58:29;;;;;;;86.90;53.08;;;16.30;70.00;;;;;;5003217;28;90638;-79
2023/04/28 05:00:54;;;;;;;86.90;52.83;;;16.30;70.10;;;;;;5006302;28;93404;-79
2023/04/28 05:03:20;;;;;;;87.40;53.10;;;16.30;70.00;;;;;;5006017;28;89761;-79
2023/04/28 05:05:47;;;;;;;86.82;53.05;;;16.30;70.10;;;;;;5004280;28;89315;-79
2023/04/28 05:08:13;;;;;;;87.00;52.90;;;16.30;70.00;;;;;;4995317;28;91545;-80
2023/04/28 05:10:39;;;;;;;86.63;52.95;;;16.30;70.10;;;;;;4997824;28;93854;-81
2023/04/28 05:13:04;;;;;;;87.25;52.92;;;16.30;70.10;;;;;;5003573;28;89361;-81
2023/04/28 05:15:30;;;;;;;88.45;53.13;;;16.30;70.00;;;;;;5000007;28;90043;-81
2023/04/28 05:17:56;;;;;;;86.70;52.70;;;16.30;69.90;;;;;;5007263;28;92966;-79
2023/04/28 05:20:22;;;;;;;87.00;52.85;;;16.30;70.00;;;;;;5001533;28;92840;-79
2023/04/28 05:22:48;;;;;;;86.60;52.85;;;16.30;70.10;;;;;;4998872;28;89743;-82
2023/04/28 05:25:14;;;;;;;87.18;52.80;;;16.30;70.10;;;;;;5003152;28;89476;-80
2023/04/28 05:27:39;;;;;;;86.43;52.75;;;16.30;70.30;;;;;;4998423;28;93241;-80
2023/04/28 05:30:09;;;;;;;87.13;52.85;;;16.30;70.40;;;;;;5003919;28;92273;-80
2023/04/28 05:32:37;;;;;;;86.50;52.65;;;16.30;70.40;;;;;;4997377;28;90961;-80
2023/04/28 05:35:03;;;;;;;88.22;52.90;;;16.30;70.40;;;;;;5002583;28;90293;-79
2023/04/28 05:37:29;;;;;;;87.35;52.53;;;16.30;70.50;;;;;;4989414;28;90296;-80
2023/04/28 05:39:54;;;;;;;86.07;52.40;;;16.30;70.40;;;;;;4993153;28;93075;-80
2023/04/28 05:42:20;;;;;;;90.22;53.80;;;16.30;70.40;;;;;;4990916;28;89809;-80
2023/04/28 05:44:45;;;;;;;96.18;54.05;;;16.30;70.40;;;;;;4991225;28;89604;-82
2023/04/28 05:47:11;;;;;;;93.80;54.10;;;16.30;70.40;;;;;;5002867;28;93339;-79
2023/04/28 05:49:38;;;;;;;93.40;53.60;;;16.40;70.40;;;;;;5009675;28;90239;-80
2023/04/28 05:52:04;;;;;;;92.45;53.80;;;16.40;70.50;;;;;;5007012;28;89675;-79
2023/04/28 05:54:29;;;;;;;94.65;53.58;;;16.40;70.40;;;;;;5003711;28;90445;-80
2023/04/28 05:56:56;;;;;;;93.30;53.67;;;16.30;70.40;;;;;;5003581;28;90763;-79
2023/04/28 05:59:22;;;;;;;93.57;54.00;;;16.40;70.30;;;;;;5000997;28;90245;-80
2023/04/28 06:01:49;;;;;;;91.10;53.85;;;16.30;70.30;;;;;;5004958;28;89482;-80
2023/04/28 06:04:15;;;;;;;89.15;53.50;;;16.40;70.40;;;;;;4998475;28;90186;-81
2023/04/28 06:06:41;;;;;;;89.60;53.15;;;16.40;70.50;;;;;;5007071;28;93120;-79
2023/04/28 06:09:07;;;;;;;96.63;53.75;;;16.40;70.50;;;;;;5003066;28;94110;-78
2023/04/28 06:11:32;;;;;;;96.32;53.70;;;16.40;70.90;;;;;;5002458;28;94622;-79
2023/04/28 06:13:58;;;;;;;93.25;53.45;;;16.40;70.90;;;;;;5002654;28;89404;-82
2023/04/28 06:16:24;;;;;;;91.30;53.35;;;16.40;71.00;;;;;;5003023;28;92625;-79
2023/04/28 06:18:49;;;;;;;91.53;53.40;;;16.40;70.90;;;;;;4999657;28;92436;-82
2023/04/28 06:21:16;;;;;;;89.72;53.45;;;16.40;71.10;;;;;;5004731;28;91619;-79
2023/04/28 06:23:42;;;;;;;91.45;53.25;;;16.40;71.10;;;;;;5005678;28;89779;-81
2023/04/28 06:26:08;;;;;;;94.03;53.25;;;16.40;70.90;;;;;;5001355;28;90987;-80
2023/04/28 06:28:34;;;;;;;95.03;53.75;;;16.40;71.00;;;;;;5003248;28;92792;-79
2023/04/28 06:31:00;;;;;;;95.57;54.60;;;16.40;71.00;;;;;;5000595;28;90216;-80
2023/04/28 06:33:25;;;;;;;96.88;54.88;;;16.40;72.30;;;;;;5002790;28;95138;-79
2023/04/28 06:35:51;;;;;;;112.35;56.88;;;16.40;73.50;;;;;;5003292;28;90504;-78
2023/04/28 06:38:17;;;;;;;98.88;56.58;;;16.40;75.50;;;;;;4997212;28;94698;-78
2023/04/28 06:40:44;;;;;;;101.05;56.25;;;16.40;75.60;;;;;;5016272;27;89485;-79
2023/04/28 06:43:11;;;;;;;108.00;56.65;;;16.50;75.60;;;;;;4997977;28;90570;-85
2023/04/28 06:45:37;;;;;;;103.10;56.63;;;16.40;76.10;;;;;;4998278;28;93935;-82
2023/04/28 06:48:03;;;;;;;110.18;56.38;;;16.40;75.80;;;;;;5002747;28;94865;-85
2023/04/28 06:50:30;;;;;;;102.65;55.85;;;16.50;76.20;;;;;;4997461;28;90387;-79
2023/04/28 06:52:57;;;;;;;105.43;56.90;;;16.50;77.30;;;;;;5002803;28;89866;-79
2023/04/28 06:55:23;;;;;;;102.45;55.80;;;16.50;76.70;;;;;;5005067;28;91836;-80
2023/04/28 06:57:49;;;;;;;100.00;56.00;;;16.50;77.00;;;;;;5005820;28;92217;-79
2023/04/28 07:00:15;;;;;;;102.68;55.55;;;16.50;77.20;;;;;;5000837;28;89663;-80
2023/04/28 07:02:41;;;;;;;102.55;55.40;;;16.50;77.30;;;;;;5004001;28;88832;-83
2023/04/28 07:05:07;;;;;;;100.93;55.22;;;16.50;77.80;;;;;;5000358;28;93079;-80
2023/04/28 07:07:33;;;;;;;97.03;54.55;;;16.50;77.30;;;;;;5000273;28;93170;-83
2023/04/28 07:09:59;;;;;;;100.65;54.90;;;16.50;78.10;;;;;;5000727;28;90890;-85
2023/04/28 07:12:26;;;;;;;99.65;54.63;;;16.50;78.60;;;;;;5002973;28;89533;-79
2023/04/28 07:14:52;;;;;;;95.55;54.72;;;16.60;79.20;;;;;;5015038;27;93037;-79
2023/04/28 07:17:17;;;;;;;97.95;55.30;;;16.60;79.50;;;;;;4999725;28;92334;-85
2023/04/28 07:19:43;;;;;;;96.45;54.63;;;16.60;80.10;;;;;;4998947;28;90007;-80
2023/04/28 07:22:08;;;;;;;100.30;55.08;;;16.60;78.40;;;;;;5002257;28;89834;-84
2023/04/28 07:24:35;;;;;;;96.70;54.67;;;16.60;79.00;;;;;;4997139;28;94258;-81
2023/04/28 07:27:02;;;;;;;97.85;54.42;;;16.60;78.90;;;;;;4996663;28;94315;-80
2023/04/28 07:29:32;;;;;;;103.53;54.92;;;16.70;79.70;;;;;;5000797;28;91116;-82
2023/04/28 07:31:58;;;;;;;98.32;54.75;;;16.70;80.00;;;;;;5000171;28;90375;-81
2023/04/28 07:34:24;;;;;;;98.00;54.67;;;16.70;80.80;;;;;;5000343;28;93912;-84
2023/04/28 07:36:50;;;;;;;94.65;55.15;;;16.70;80.20;;;;;;5000803;28;94314;-83
2023/04/28 07:39:16;;;;;;;96.22;54.50;;;16.70;80.50;;;;;;5003151;28;91035;-84
2023/04/28 07:41:41;;;;;;;94.28;54.60;;;16.70;81.20;;;;;;5003274;28;90118;-81
2023/04/28 07:44:07;;;;;;;99.22;54.47;;;16.70;81.10;;;;;;5003058;28;92319;-83
2023/04/28 07:46:33;;;;;;;92.78;53.80;;;16.70;81.30;;;;;;5000349;28;92988;-88
2023/04/28 07:48:59;;;;;;;96.22;54.42;;;16.80;81.50;;;;;;5005799;28;89750;-85
2023/04/28 07:51:26;;;;;;;97.80;54.10;;;16.80;81.50;;;;;;4999402;28;89583;-81
2023/04/28 07:53:51;;;;;;;95.43;53.85;;;16.70;81.70;;;;;;5002948;28;90269;-82
2023/04/28 07:56:17;;;;;;;94.20;54.13;;;16.80;80.50;;;;;;5003181;28;90370;-84
2023/04/28 07:58:43;;;;;;;95.03;54.45;;;16.80;80.90;;;;;;4997937;28;91356;-83
2023/04/28 08:01:09;;;;;;;99.68;53.78;;;16.80;81.20;;;;;;4999823;28;89847;-81
2023/04/28 08:03:34;;;;;;;96.55;54.33;;;16.80;79.70;;;;;;5000613;28;92743;-81
2023/04/28 08:06:00;;;;;;;94.25;53.75;;;16.80;79.10;;;;;;5013173;27;94581;-81
2023/04/28 08:08:26;;;;;;;95.22;54.38;;;16.80;79.30;;;;;;4995578;28;89583;-85
2023/04/28 08:10:53;;;;;;;97.20;54.47;;;16.80;79.10;;;;;;5000697;28;89744;-87
2023/04/28 08:13:18;;;;;;;95.53;54.58;;;16.80;78.90;;;;;;5000368;28;91497;-84
2023/04/28 08:15:46;;;;;;;99.68;54.58;;;16.80;78.60;;;;;;4991792;28;94371;-80
2023/04/28 08:18:11;;;;;;;95.47;53.90;;;16.80;78.50;;;;;;4996967;28;94311;-80
2023/04/28 08:20:37;;;;;;;98.40;54.22;;;16.80;78.30;;;;;;4998520;28;90514;-81
2023/04/28 08:23:02;;;;;;;93.80;54.13;;;16.80;78.20;;;;;;4997751;28;91544;-84
2023/04/28 08:25:28;;;;;;;91.78;53.70;;;16.80;78.10;;;;;;4997950;28;93946;-81
2023/04/28 08:27:54;;;;;;;95.40;54.10;;;16.90;78.10;;;;;;4996999;28;90543;-80
2023/04/28 08:30:20;;;;;;;95.85;54.03;;;16.90;78.20;;;;;;4997210;28;89986;-87
2023/04/28 08:32:46;;;;;;;94.82;54.00;;;16.90;78.10;;;;;;4997621;28;92904;-83
2023/04/28 08:35:14;;;;;;;98.45;54.22;;;16.90;78.20;;;;;;5001574;28;92495;-85
2023/04/28 08:37:40;;;;;;;96.60;54.10;;;17.00;78.40;;;;;;4999221;28;90490;-80
2023/04/28 08:40:08;;;;;;;92.95;53.70;;;17.00;78.20;;;;;;4999414;28;89697;-83
2023/04/28 08:42:36;;;;;;;94.47;53.40;;;16.90;78.00;;;;;;4997469;28;90080;-81
2023/04/28 08:45:04;;;;;;;93.50;54.03;;;16.90;78.10;;;;;;4992475;28;90471;-81
2023/04/28 08:47:38;;;;;;;93.22;53.72;;;17.00;78.20;;;;;;5013698;27;90841;-79
2023/04/28 08:50:05;;;;;;;94.50;53.45;;;17.00;78.10;;;;;;5005233;28;89803;-79
2023/04/28 08:52:32;;;;;;;96.93;53.42;;;17.00;78.40;;;;;;5007142;28;90728;-79
2023/04/28 08:54:59;;;;;;;90.82;53.47;;;16.90;78.10;;;;;;5006935;28;94052;-81
2023/04/28 08:57:29;;;;;;;90.97;53.22;;;16.90;77.60;;;;;;5017238;27;90017;-80
2023/04/28 08:59:55;;;;;;;92.32;53.65;;;17.00;77.50;;;;;;5000049;28;89945;-81
2023/04/28 09:02:21;;;;;;;93.15;53.75;;;16.90;78.10;;;;;;5010006;28;90275;-80
2023/04/28 09:04:47;;;;;;;95.55;53.53;;;16.90;78.40;;;;;;5012895;28;92812;-80
2023/04/28 09:07:13;;;;;;;94.05;54.20;;;16.90;77.80;;;;;;5005117;28;89952;-78
2023/04/28 09:09:39;;;;;;;94.25;53.97;;;16.90;77.60;;;;;;4996402;28;91484;-79
2023/04/28 09:12:06;;;;;;;90.88;53.25;;;16.90;77.70;;;;;;5001550;28;92159;-84
2023/04/28 09:14:33;;;;;;;93.45;53.60;;;16.90;77.60;;;;;;4996711;28;93775;-84
2023/04/28 09:16:59;;;;;;;94.65;53.15;;;17.00;78.10;;;;;;4998705;28;92298;-80
2023/04/28 09:19:35;;;;;;;92.15;53.33;;;17.00;78.10;;;;;;4998652;28;90124;-84
2023/04/28 09:22:02;;;;;;;90.03;53.25;;;16.90;78.00;;;;;;5000304;28;93024;-79
2023/04/28 09:24:30;;;;;;;94.00;53.05;;;17.00;77.80;;;;;;5001755;28;89800;-80
2023/04/28 09:26:56;;;;;;;95.60;53.58;;;17.00;78.40;;;;;;5004275;28;89798;-88
2023/04/28 09:29:22;;;;;;;92.18;53.25;;;17.00;78.50;;;;;;5020409;27;89133;-80
2023/04/28 09:31:48;;;;;;;94.40;53.50;;;17.00;79.10;;;;;;5006405;28;93098;-82
2023/04/28 09:34:14;;;;;;;92.47;53.42;;;16.90;79.30;;;;;;5003029;28;93517;-82
2023/04/28 09:36:40;;;;;;;91.63;53.28;;;17.00;79.00;;;;;;4997605;28;91182;-79
2023/04/28 09:39:05;;;;;;;93.85;53.22;;;17.00;78.80;;;;;;5000102;28;90408;-81
2023/04/28 09:41:36;;;;;;;90.28;52.92;;;17.00;78.50;;;;;;5011844;28;90090;-80
2023/04/28 09:44:20;;;;;;;90.78;52.67;;;17.00;78.30;;;;;;5011092;28;93285;-79
2023/04/28 09:46:46;;;;;;;92.70;53.50;;;17.00;78.20;;;;;;5007976;28;90320;-85
2023/04/28 09:49:13;;;;;;;91.53;52.80;;;16.90;78.10;;;;;;5009592;28;89586;-81
2023/04/28 09:51:39;;;;;;;96.47;53.38;;;17.00;78.80;;;;;;5010190;28;91134;-85
2023/04/28 09:54:06;;;;;;;92.75;53.10;;;17.00;78.00;;;;;;5009905;28;92690;-80
2023/04/28 09:56:37;;;;;;;96.40;53.45;;;17.00;78.10;;;;;;5007647;28;94524;-81
2023/04/28 09:59:03;;;;;;;92.72;53.08;;;17.00;77.90;;;;;;5011332;28;89886;-80
2023/04/28 10:01:37;;;;;;;91.28;53.00;;;16.90;77.80;;;;;;5001949;28;93707;-82
2023/04/28 10:04:05;;;;;;;91.90;53.13;;;17.00;77.90;;;;;;5004181;28;93564;-83
2023/04/28 10:06:35;;;;;;;93.07;53.13;;;17.00;77.60;;;;;;5008111;28;90375;-80
2023/04/28 10:09:01;;;;;;;92.80;53.00;;;17.00;77.90;;;;;;5005021;28;89872;-80
2023/04/28 10:11:28;;;;;;;90.30;53.03;;;17.00;77.80;;;;;;5009396;28;93042;-83
2023/04/28 10:13:54;;;;;;;91.95;52.63;;;17.00;77.40;;;;;;5007157;28;89937;-80
2023/04/28 10:16:20;;;;;;;91.47;52.72;;;17.00;77.60;;;;;;5015767;27;89606;-79
2023/04/28 10:18:46;;;;;;;92.15;52.83;;;17.00;77.30;;;;;;5007788;28;92738;-80
2023/04/28 10:21:17;;;;;;;90.40;52.78;;;17.00;77.30;;;;;;5009967;28;92743;-80
2023/04/28 10:23:52;;;;;;;91.78;53.00;;;17.00;78.30;;;;;;5008545;28;93027;-81
2023/04/28 10:26:18;;;;;;;93.00;53.10;;;17.10;78.10;;;;;;4999755;28;91598;-78
2023/04/28 10:28:48;;;;;;;92.55;53.13;;;17.10;78.10;;;;;;5009127;28;89566;-78
2023/04/28 10:31:15;;;;;;;95.43;53.03;;;17.10;78.20;;;;;;5007014;28;92375;-79
2023/04/28 10:33:41;;;;;;;91.82;52.45;;;17.00;78.10;;;;;;5009701;28;92963;-78
2023/04/28 10:36:07;;;;;;;90.93;52.75;;;17.10;78.10;;;;;;5007531;28;89988;-83
2023/04/28 10:38:34;;;;;;;95.93;52.92;;;17.00;77.90;;;;;;5001366;28;90022;-79
2023/04/28 10:41:02;;;;;;;90.15;52.65;;;17.00;77.90;;;;;;5005619;28;89583;-79
2023/04/28 10:43:38;;;;;;;89.18;52.50;;;17.00;77.80;;;;;;5008874;28;90954;-80
2023/04/28 10:46:08;;;;;;;90.53;52.97;;;17.00;77.70;;;;;;5003529;28;89893;-83
2023/04/28 10:48:36;;;;;;;90.90;52.85;;;17.00;77.60;;;;;;5003162;28;89577;-78
2023/04/28 10:51:02;;;;;;;92.18;52.78;;;17.10;77.60;;;;;;5003120;28;94021;-79
2023/04/28 10:53:51;;;;;;;92.40;52.95;;;17.10;77.30;;;;;;5002044;28;93868;-83
2023/04/28 10:56:18;;;;;;;91.55;52.45;;;17.10;77.50;;;;;;4989757;28;90591;-81
2023/04/28 10:58:53;;;;;;;88.72;52.50;;;17.10;77.50;;;;;;4998782;28;89916;-81
2023/04/28 11:01:19;;;;;;;88.22;52.25;;;17.10;77.70;;;;;;5003845;28;91825;-81
2023/04/28 11:03:59;;;;;;;92.50;52.92;;;17.10;77.60;;;;;;5000554;28;92519;-84
2023/04/28 11:06:35;;;;;;;89.70;52.45;;;17.10;77.60;;;;;;4995453;28;89773;-81
2023/04/28 11:09:01;;;;;;;95.15;52.58;;;17.10;77.50;;;;;;4997029;28;89353;-85
2023/04/28 11:11:37;;;;;;;90.82;52.83;;;17.10;77.60;;;;;;5004351;28;89903;-79
2023/04/28 11:14:19;;;;;;;89.90;52.22;;;17.10;77.60;;;;;;4998460;28;93458;-82
2023/04/28 11:16:50;;;;;;;;;;;17.10;77.20;;;;;;4998973;28;90990;-80
2023/04/28 11:19:36;;;;;;;;;;;17.10;77.30;;;;;;5005516;28;90829;-85
2023/04/28 11:22:22;;;;;;;87.70;51.90;;;17.10;77.40;;;;;;5001323;28;90132;-80
2023/04/28 11:24:56;;;;;;;89.80;52.35;;;17.10;77.30;;;;;;5004983;28;91093;-82
2023/04/28 11:27:26;;;;;;;88.70;52.55;;;17.10;77.30;;;;;;5017667;27;89803;-82
2023/04/28 11:29:52;;;;;;;88.07;52.35;;;17.10;77.20;;;;;;5005450;28;89601;-81
2023/04/28 11:32:28;;;;;;;90.22;52.40;;;17.10;77.10;;;;;;4999241;28;93905;-83
2023/04/28 11:34:54;;;;;;;90.43;52.72;;;17.20;78.30;;;;;;5004040;28;93436;-82
2023/04/28 11:37:20;;;;;;;93.00;52.83;;;17.30;79.00;;;;;;5001802;28;91056;-83
2023/04/28 11:39:46;;;;;;;93.82;52.92;;;17.40;78.40;;;;;;4998295;28;89693;-82
2023/04/28 11:42:12;;;;;;;90.80;52.70;;;17.40;78.30;;;;;;5000328;28;93714;-81
2023/04/28 11:44:38;;;;;;;89.53;52.72;;;17.40;78.00;;;;;;5000985;28;92558;-80
2023/04/28 11:47:05;;;;;;;91.68;52.78;;;17.40;77.80;;;;;;5006180;28;89915;-82
2023/04/28 11:49:32;;;;;;;92.13;52.95;;;17.40;77.90;;;;;;5012667;27;90197;-83
2023/04/28 11:52:04;;;;;;;91.88;52.70;;;17.40;78.10;;;;;;5000536;28;92917;-81
2023/04/28 11:54:30;;;;;;;92.95;52.60;;;17.40;78.10;;;;;;4999380;28;92945;-82
2023/04/28 11:56:57;;;;;;;92.15;52.67;;;17.40;78.10;;;;;;5015988;27;89895;-81
2023/04/28 11:59:28;;;;;;;93.53;52.85;;;17.40;78.20;;;;;;5005911;28;89032;-83
2023/04/28 12:01:57;;;;;;;91.38;52.95;;;17.40;79.20;;;;;;5002171;28;93821;-83
2023/04/28 12:04:29;;;;;;;88.95;52.42;;;17.40;79.80;;;;;;5002018;28;93168;-80
2023/04/28 12:07:06;;;;;;;90.03;52.78;;;17.40;78.00;;;;;;5000090;28;90890;-81
2023/04/28 12:09:33;;;;;;;90.53;52.53;;;17.30;77.10;;;;;;4997676;28;89698;-80
2023/04/28 12:12:04;;;;;;;88.38;52.38;;;17.40;76.80;;;;;;4997397;28;91506;-82
2023/04/28 12:14:34;;;;;;;;;;;17.40;76.80;;;;;;5000167;28;93493;-79
2023/04/28 12:17:00;;;;;;;90.65;52.25;;;17.40;77.20;;;;;;5001923;28;90503;-81
2023/04/28 12:19:26;;;;;;;87.88;52.13;;;17.40;77.80;;;;;;4998809;28;89864;-80
2023/04/28 12:22:06;;;;;;;89.80;52.42;;;17.50;77.90;;;;;;5001656;28;97681;-79
2023/04/28 12:24:32;;;;;;;88.28;52.42;;;17.40;77.10;;;;;;5013750;27;92437;-80
2023/04/28 12:27:20;;;;;;;89.95;52.47;;;17.50;77.40;;;;;;4999456;28;89742;-83